createdAt,value
2018-03-04T00:01:22.317Z,51.30
2018-03-04T00:03:50.714Z,69.90
2018-03-04T00:06:19.242Z,54.75
2018-03-04T00:08:48.350Z,52.83
2018-03-04T00:11:18.338Z,64.37
2018-03-04T00:13:46.839Z,52.15
2018-03-04T00:16:16.569Z,54.60
2018-03-04T00:18:45.386Z,53.00
2018-03-04T00:21:14.937Z,50.35
2018-03-04T00:23:44.668Z,53.80
2018-03-04T00:26:13.271Z,47.92
2018-03-04T00:28:43.491Z,54.58
2018-03-04T00:31:11.893Z,49.72
2018-03-04T00:33:40.331Z,57.28
2018-03-04T00:36:08.765Z,61.25
2018-03-04T00:38:39.179Z,63.45
2018-03-04T00:41:08.110Z,49.20
2018-03-04T00:43:37.528Z,55.75
2018-03-04T00:46:06.272Z,53.15
2018-03-04T00:48:37.262Z,48.35
2018-03-04T00:51:05.777Z,52.33
2018-03-04T00:53:34.988Z,54.13
2018-03-04T00:56:04.755Z,50.88
2018-03-04T00:58:34.463Z,62.33
2018-03-04T01:01:03.123Z,51.63
2018-03-04T01:03:32.978Z,61.03
2018-03-04T01:06:01.488Z,56.80
2018-03-04T01:08:30.117Z,52.55
2018-03-04T01:10:59.721Z,51.10
2018-03-04T01:13:28.787Z,51.28
2018-03-04T01:15:57.528Z,49.78
2018-03-04T01:18:28.305Z,46.72
2018-03-04T01:20:58.876Z,62.72
2018-03-04T01:23:27.298Z,51.17
2018-03-04T01:25:56.657Z,57.28
2018-03-04T01:28:25.608Z,60.38
2018-03-04T01:30:55.041Z,60.12
2018-03-04T01:33:24.818Z,66.65
2018-03-04T01:35:53.355Z,49.15
2018-03-04T01:38:24.395Z,50.20
2018-03-04T01:40:53.454Z,47.00
2018-03-04T01:43:23.121Z,62.13
2018-03-04T01:45:53.204Z,51.13
2018-03-04T01:48:21.838Z,59.08
2018-03-04T01:50:53.093Z,56.60
2018-03-04T01:53:24.188Z,59.05
2018-03-04T01:55:53.033Z,65.97
2018-03-04T01:58:23.152Z,65.95
2018-03-04T02:00:52.242Z,58.80
2018-03-04T02:03:21.139Z,55.80
2018-03-04T02:05:51.833Z,61.40
2018-03-04T02:08:20.448Z,58.00
2018-03-04T02:10:49.091Z,61.88
2018-03-04T02:13:19.005Z,64.97
2018-03-04T02:15:47.973Z,62.38
2018-03-04T02:18:18.679Z,64.70
2018-03-04T02:20:47.332Z,60.70
2018-03-04T02:23:16.905Z,58.28
2018-03-04T02:25:46.214Z,58.40
2018-03-04T02:28:15.064Z,54.83
2018-03-04T02:30:43.896Z,66.10
2018-03-04T02:33:12.652Z,54.45
2018-03-04T02:35:41.479Z,59.88
2018-03-04T02:38:10.264Z,63.22
2018-03-04T02:40:38.986Z,63.25
2018-03-04T02:43:08.729Z,56.58
2018-03-04T02:45:38.873Z,60.10
2018-03-04T02:48:07.850Z,54.30
2018-03-04T02:50:37.083Z,64.47
2018-03-04T02:53:05.609Z,60.38
2018-03-04T02:55:34.929Z,61.22
2018-03-04T02:58:03.507Z,64.20
2018-03-04T03:00:32.521Z,69.30
2018-03-04T03:03:01.294Z,61.78
2018-03-04T03:05:29.744Z,55.08
2018-03-04T03:07:58.704Z,52.17
2018-03-04T03:10:27.530Z,51.30
2018-03-04T03:12:55.931Z,56.05
2018-03-04T03:15:25.988Z,67.05
2018-03-04T03:17:54.900Z,60.38
2018-03-04T03:20:24.075Z,52.35
2018-03-04T03:22:52.930Z,68.80
2018-03-04T03:25:21.803Z,59.53
2018-03-04T03:27:50.827Z,64.35
2018-03-04T03:30:19.687Z,66.37
2018-03-04T03:32:49.510Z,69.45
2018-03-04T03:35:19.103Z,58.15
2018-03-04T03:37:48.037Z,64.15
2018-03-04T03:40:20.078Z,61.50
2018-03-04T03:42:48.897Z,61.60
2018-03-04T03:45:19.604Z,64.45
2018-03-04T03:47:48.145Z,70.32
2018-03-04T03:50:17.413Z,65.80
2018-03-04T03:52:46.619Z,73.25
2018-03-04T03:55:16.297Z,62.62
2018-03-04T03:57:46.017Z,58.67
2018-03-04T04:00:14.574Z,70.93
2018-03-04T04:02:45.553Z,69.57
2018-03-04T04:05:16.149Z,68.10
2018-03-04T04:07:44.932Z,56.90
2018-03-04T04:10:14.887Z,63.72
2018-03-04T04:12:44.072Z,74.35
2018-03-04T04:15:13.804Z,71.55
2018-03-04T04:17:43.697Z,62.42
2018-03-04T04:20:12.126Z,61.08
2018-03-04T04:22:42.509Z,58.83
2018-03-04T04:25:11.113Z,63.35
2018-03-04T04:27:41.445Z,56.33
2018-03-04T04:30:11.811Z,55.95
2018-03-04T04:32:40.837Z,73.53
2018-03-04T04:35:10.680Z,64.47
2018-03-04T04:37:39.646Z,67.30
2018-03-04T04:40:09.052Z,68.25
2018-03-04T04:42:38.579Z,65.82
2018-03-04T04:45:06.986Z,72.68
2018-03-04T04:47:36.329Z,61.40
2018-03-04T04:50:05.157Z,65.12
2018-03-04T04:52:37.819Z,63.60
2018-03-04T04:55:07.707Z,68.55
2018-03-04T04:57:36.256Z,75.75
2018-03-04T05:00:05.105Z,72.82
2018-03-04T05:02:33.712Z,66.65
2018-03-04T05:05:02.417Z,71.62
2018-03-04T05:07:33.203Z,64.20
2018-03-04T05:10:01.859Z,83.65
2018-03-04T05:12:31.168Z,64.72
2018-03-04T05:15:00.494Z,67.72
2018-03-04T05:17:28.924Z,62.78
2018-03-04T05:19:58.404Z,69.65
2018-03-04T05:22:27.224Z,66.07
2018-03-04T05:24:56.368Z,69.57
2018-03-04T05:27:24.907Z,61.53
2018-03-04T05:29:54.270Z,77.32
2018-03-04T05:32:24.623Z,62.30
2018-03-04T05:34:53.448Z,81.80
2018-03-04T05:37:22.305Z,64.55
2018-03-04T05:39:51.098Z,60.65
2018-03-04T05:42:19.900Z,60.33
2018-03-04T05:44:49.625Z,59.60
2018-03-04T05:47:18.396Z,67.87
2018-03-04T05:49:47.817Z,62.67
2018-03-04T05:52:16.660Z,64.22
2018-03-04T05:54:45.358Z,61.22
2018-03-04T05:57:15.901Z,74.80
2018-03-04T05:59:44.980Z,66.12
2018-03-04T06:02:13.869Z,69.87
2018-03-04T06:04:42.431Z,67.68
2018-03-04T06:07:12.949Z,63.58
2018-03-04T06:09:41.646Z,63.97
2018-03-04T06:12:10.317Z,70.05
2018-03-04T06:14:40.604Z,64.30
2018-03-04T06:17:10.878Z,68.72
2018-03-04T06:19:39.824Z,61.37
2018-03-04T06:22:09.243Z,70.18
2018-03-04T06:24:38.468Z,64.40
2018-03-04T06:27:06.886Z,63.20
2018-03-04T06:29:35.783Z,65.30
2018-03-04T06:32:04.977Z,62.35
2018-03-04T06:34:35.217Z,66.78
2018-03-04T06:37:04.025Z,63.03
2018-03-04T06:39:33.255Z,70.05
2018-03-04T06:42:03.930Z,66.10
2018-03-04T06:44:32.455Z,76.30
2018-03-04T06:47:01.236Z,83.33
2018-03-04T06:49:29.644Z,75.30
2018-03-04T06:51:59.027Z,67.83
2018-03-04T06:54:27.520Z,57.40
2018-03-04T06:56:57.716Z,73.50
2018-03-04T06:59:26.353Z,69.33
2018-03-04T07:01:54.825Z,78.17
2018-03-04T07:04:23.632Z,70.00
2018-03-04T07:06:52.239Z,72.43
2018-03-04T07:09:22.993Z,71.53
2018-03-04T07:11:52.078Z,78.27
2018-03-04T07:14:22.340Z,80.30
2018-03-04T07:16:51.397Z,76.50
2018-03-04T07:19:20.642Z,82.03
2018-03-04T07:21:51.568Z,69.40
2018-03-04T07:24:20.064Z,74.43
2018-03-04T07:26:49.228Z,79.53
2018-03-04T07:29:18.925Z,89.70
2018-03-04T07:31:47.422Z,85.20
2018-03-04T07:34:16.016Z,76.33
2018-03-04T07:36:45.751Z,74.07
2018-03-04T07:39:16.288Z,83.10
2018-03-04T07:41:45.202Z,81.80
2018-03-04T07:44:14.164Z,72.37
2018-03-04T07:46:45.013Z,88.77
2018-03-04T07:49:14.399Z,80.47
2018-03-04T07:51:44.055Z,75.60
2018-03-04T07:54:13.851Z,80.97
2018-03-04T07:56:42.728Z,75.93
2018-03-04T07:59:11.476Z,77.97
2018-03-04T08:01:46.162Z,76.20
2018-03-04T08:04:14.941Z,81.47
2018-03-04T08:06:43.715Z,82.13
2018-03-04T08:09:12.676Z,71.17
2018-03-04T08:11:42.831Z,80.57
2018-03-04T08:14:12.870Z,69.03
2018-03-04T08:16:41.814Z,76.90
2018-03-04T08:19:11.078Z,69.50
2018-03-04T08:21:41.004Z,72.07
2018-03-04T08:24:09.861Z,78.57
2018-03-04T08:26:56.282Z,84.37
2018-03-04T08:29:25.318Z,70.80
2018-03-04T08:31:53.833Z,70.57
2018-03-04T08:34:22.360Z,72.60
2018-03-04T08:36:52.607Z,78.37
2018-03-04T08:39:22.150Z,66.33
2018-03-04T08:41:51.764Z,79.63
2018-03-04T08:44:20.911Z,73.00
2018-03-04T08:46:51.271Z,79.17
2018-03-04T08:49:19.895Z,65.60
2018-03-04T08:51:49.976Z,78.80
2018-03-04T08:54:19.271Z,68.27
2018-03-04T08:56:49.265Z,90.10
2018-03-04T08:59:17.738Z,80.00
2018-03-04T09:01:46.239Z,85.47
2018-03-04T09:04:14.697Z,86.70
2018-03-04T09:06:43.179Z,73.67
2018-03-04T09:09:11.806Z,74.53
2018-03-04T09:11:40.654Z,93.17
2018-03-04T09:14:09.211Z,75.10
2018-03-04T09:16:37.655Z,83.33
2018-03-04T09:19:06.096Z,74.03
2018-03-04T09:21:35.080Z,81.33
2018-03-04T09:24:03.708Z,70.00
2018-03-04T09:26:32.164Z,78.47
2018-03-04T09:29:00.727Z,73.77
2018-03-04T09:31:29.260Z,84.13
2018-03-04T09:33:58.204Z,77.60
2018-03-04T09:36:26.692Z,73.20
2018-03-04T09:38:55.181Z,79.53
2018-03-04T09:41:23.632Z,82.50
2018-03-04T09:43:52.115Z,79.30
2018-03-04T09:46:20.614Z,87.80
2018-03-04T09:48:49.049Z,77.80
2018-03-04T09:51:17.891Z,84.53
2018-03-04T09:53:46.332Z,82.10
2018-03-04T09:56:14.838Z,83.73
2018-03-04T09:58:43.292Z,89.30
2018-03-04T10:01:11.748Z,88.80
2018-03-04T10:03:40.666Z,77.23
2018-03-04T10:06:09.167Z,84.00
2018-03-04T10:08:37.620Z,92.33
2018-03-04T10:11:06.585Z,97.40
2018-03-04T10:13:35.129Z,83.20
2018-03-04T10:16:03.612Z,80.50
2018-03-04T10:18:32.078Z,75.33
2018-03-04T10:21:01.004Z,89.70
2018-03-04T10:23:29.855Z,96.73
2018-03-04T10:25:58.314Z,82.30
2018-03-04T10:28:27.212Z,91.10
2018-03-04T10:30:56.057Z,82.20
2018-03-04T10:33:24.496Z,83.50
2018-03-04T10:35:52.994Z,95.37
2018-03-04T10:38:21.435Z,75.37
2018-03-04T10:40:50.297Z,85.37
2018-03-04T10:43:18.737Z,78.73
2018-03-04T10:45:47.222Z,86.83
2018-03-04T10:48:15.669Z,85.40
2018-03-04T10:50:44.517Z,80.43
2018-03-04T10:53:12.960Z,85.53
2018-03-04T10:55:41.477Z,79.20
2018-03-04T10:58:09.936Z,81.83
2018-03-04T11:00:44.028Z,89.80
2018-03-04T11:03:18.867Z,101.57
2018-03-04T11:05:47.384Z,83.50
2018-03-04T11:08:15.860Z,96.03
2018-03-04T11:10:44.319Z,86.73
2018-03-04T11:13:12.779Z,102.73
2018-03-04T11:15:41.222Z,91.50
2018-03-04T11:18:09.665Z,96.87
2018-03-04T11:20:38.189Z,79.00
2018-03-04T11:23:06.636Z,79.60
2018-03-04T11:25:35.072Z,99.13
2018-03-04T11:28:03.996Z,91.43
2018-03-04T11:30:32.448Z,87.83
2018-03-04T11:33:01.299Z,91.40
2018-03-04T11:35:29.745Z,90.50
2018-03-04T11:37:58.192Z,94.10
2018-03-04T11:40:27.029Z,84.73
2018-03-04T11:42:55.558Z,88.50
2018-03-04T11:45:24.085Z,86.80
2018-03-04T11:47:52.520Z,96.40
2018-03-04T11:50:21.390Z,87.10
2018-03-04T11:52:49.849Z,83.30
2018-03-04T11:55:18.326Z,82.73
2018-03-04T11:57:46.757Z,86.63
2018-03-04T12:00:15.695Z,84.50
2018-03-04T12:02:44.183Z,99.47
2018-03-04T12:05:12.628Z,96.20
2018-03-04T12:07:41.136Z,83.80
2018-03-04T12:10:09.617Z,84.27
2018-03-04T12:12:38.134Z,89.13
2018-03-04T12:15:06.580Z,106.77
2018-03-04T12:17:35.061Z,93.73
2018-03-04T12:20:03.520Z,89.00
2018-03-04T12:22:31.951Z,86.97
2018-03-04T12:25:00.390Z,86.03
2018-03-04T12:27:28.893Z,98.23
2018-03-04T12:29:57.333Z,85.17
2018-03-04T12:32:26.165Z,88.37
2018-03-04T12:34:54.609Z,90.47
2018-03-04T12:37:23.116Z,90.23
2018-03-04T12:39:51.551Z,95.07
2018-03-04T12:42:20.481Z,85.60
2018-03-04T12:44:49.839Z,93.77
2018-03-04T12:47:18.540Z,89.27
2018-03-04T12:49:47.004Z,84.70
2018-03-04T12:52:15.519Z,87.27
2018-03-04T12:54:44.025Z,86.40
2018-03-04T12:57:12.514Z,86.43
2018-03-04T12:59:40.948Z,86.40
2018-03-04T13:02:09.884Z,83.90
2018-03-04T13:04:38.357Z,84.47
2018-03-04T13:07:06.808Z,92.93
2018-03-04T13:09:35.243Z,82.77
2018-03-04T13:12:03.734Z,86.53
2018-03-04T13:14:32.177Z,86.07
2018-03-04T13:17:00.607Z,84.93
2018-03-04T13:19:29.046Z,83.60
2018-03-04T13:21:57.511Z,84.73
2018-03-04T13:24:25.981Z,82.93
2018-03-04T13:26:54.480Z,88.30
2018-03-04T13:29:22.972Z,85.20
2018-03-04T13:31:51.432Z,93.23
2018-03-04T13:34:19.879Z,103.20
2018-03-04T13:36:48.803Z,98.37
2018-03-04T13:39:17.297Z,101.90
2018-03-04T13:41:45.774Z,82.33
2018-03-04T13:44:14.208Z,89.77
2018-03-04T13:46:43.060Z,82.97
2018-03-04T13:49:11.531Z,86.80
2018-03-04T13:51:40.011Z,91.00
2018-03-04T13:54:08.492Z,88.13
2018-03-04T13:56:36.984Z,84.53
2018-03-04T13:59:05.412Z,87.73
2018-03-04T14:01:34.249Z,77.40
2018-03-04T14:04:02.700Z,79.50
2018-03-04T14:06:31.210Z,89.80
2018-03-04T14:08:59.669Z,80.13
2018-03-04T14:11:28.134Z,77.97
2018-03-04T14:13:56.995Z,76.53
2018-03-04T14:16:25.494Z,77.10
2018-03-04T14:18:54.333Z,81.90
2018-03-04T14:21:22.776Z,77.43
2018-03-04T14:23:51.629Z,88.00
2018-03-04T14:26:20.080Z,84.87
2018-03-04T14:28:48.564Z,94.03
2018-03-04T14:31:17.017Z,101.10
2018-03-04T14:33:45.478Z,90.17
2018-03-04T14:36:14.425Z,82.30
2018-03-04T14:38:42.901Z,80.83
2018-03-04T14:41:12.245Z,87.83
2018-03-04T14:43:40.768Z,78.43
2018-03-04T14:46:09.295Z,79.23
2018-03-04T14:48:37.712Z,76.03
2018-03-04T14:51:06.221Z,84.63
2018-03-04T14:53:34.672Z,78.70
2018-03-04T14:56:03.121Z,80.57
2018-03-04T14:58:31.564Z,83.37
2018-03-04T15:01:00.020Z,85.57
2018-03-04T15:03:28.538Z,73.67
2018-03-04T15:05:56.975Z,81.93
2018-03-04T15:08:25.811Z,83.83
2018-03-04T15:10:54.256Z,72.60
2018-03-04T15:13:22.728Z,83.73
2018-03-04T15:15:51.544Z,78.20
2018-03-04T15:18:20.057Z,79.87
2018-03-04T15:20:48.509Z,80.63
2018-03-04T15:23:16.989Z,91.30
2018-03-04T15:25:45.419Z,84.73
2018-03-04T15:28:13.848Z,82.33
2018-03-04T15:30:43.045Z,81.77
2018-03-04T15:33:11.896Z,94.00
2018-03-04T15:35:40.742Z,81.73
2018-03-04T15:38:09.229Z,90.97
2018-03-04T15:40:37.677Z,82.57
2018-03-04T15:43:06.108Z,101.87
2018-03-04T15:45:34.551Z,95.30
2018-03-04T15:48:02.990Z,87.80
2018-03-04T15:50:31.923Z,90.57
2018-03-04T15:53:00.440Z,105.37
2018-03-04T15:55:29.304Z,93.87
2018-03-04T15:57:57.817Z,82.20
2018-03-04T16:00:26.260Z,86.33
2018-03-04T16:02:54.719Z,78.07
2018-03-04T16:05:23.191Z,80.60
2018-03-04T16:07:51.632Z,82.73
2018-03-04T16:10:20.103Z,84.77
2018-03-04T16:12:48.542Z,87.87
2018-03-04T16:15:17.048Z,85.07
2018-03-04T16:17:45.481Z,85.77
2018-03-04T16:20:13.948Z,81.27
2018-03-04T16:22:42.373Z,87.53
2018-03-04T16:25:11.404Z,91.63
2018-03-04T16:27:39.846Z,80.30
2018-03-04T16:30:08.307Z,82.20
2018-03-04T16:32:36.745Z,87.20
2018-03-04T16:35:05.198Z,79.30
2018-03-04T16:37:33.956Z,84.13
2018-03-04T16:40:02.457Z,86.27
2018-03-04T16:42:30.911Z,78.00
2018-03-04T16:44:59.768Z,83.47
2018-03-04T16:47:28.325Z,77.27
2018-03-04T16:49:56.759Z,82.20
2018-03-04T16:52:25.705Z,87.40
2018-03-04T16:54:54.177Z,81.37
2018-03-04T16:57:22.621Z,84.90
2018-03-04T16:59:51.081Z,83.00
2018-03-04T17:02:19.643Z,89.67
2018-03-04T17:04:48.138Z,81.00
2018-03-04T17:07:16.676Z,78.03
2018-03-04T17:09:45.174Z,79.00
2018-03-04T17:12:13.784Z,80.20
2018-03-04T17:14:42.226Z,83.00
2018-03-04T17:17:10.673Z,84.20
2018-03-04T17:19:40.110Z,76.83
2018-03-04T17:22:08.577Z,85.83
2018-03-04T17:24:37.177Z,72.47
2018-03-04T17:27:05.659Z,96.47
2018-03-04T17:29:34.110Z,78.60
2018-03-04T17:32:02.645Z,69.10
2018-03-04T17:34:31.097Z,76.23
2018-03-04T17:36:59.614Z,81.63
2018-03-04T17:39:28.056Z,76.17
2018-03-04T17:41:56.503Z,71.60
2018-03-04T17:44:25.339Z,69.13
2018-03-04T17:46:53.920Z,66.30
2018-03-04T17:49:22.377Z,69.80
2018-03-04T17:51:50.873Z,67.23
2018-03-04T17:54:19.325Z,74.00
2018-03-04T17:56:48.269Z,63.57
2018-03-04T17:59:16.712Z,65.80
2018-03-04T18:01:45.216Z,71.30
2018-03-04T18:04:13.652Z,72.47
2018-03-04T18:06:42.600Z,84.17
2018-03-04T18:09:11.040Z,69.80
2018-03-04T18:11:39.543Z,66.20
2018-03-04T18:14:07.990Z,76.00
2018-03-04T18:16:36.824Z,82.17
2018-03-04T18:19:05.303Z,83.83
2018-03-04T18:21:33.800Z,78.87
2018-03-04T18:24:02.678Z,76.47
2018-03-04T18:26:31.120Z,71.70
2018-03-04T18:28:59.636Z,77.50
2018-03-04T18:31:28.112Z,76.47
2018-03-04T18:33:56.585Z,69.90
2018-03-04T18:36:25.053Z,78.70
2018-03-04T18:38:53.558Z,81.17
2018-03-04T18:41:22.008Z,85.77
2018-03-04T18:43:50.470Z,97.03
2018-03-04T18:46:19.312Z,75.00
2018-03-04T18:48:47.757Z,83.23
2018-03-04T18:51:16.683Z,82.40
2018-03-04T18:53:45.745Z,75.17
2018-03-04T18:56:14.575Z,82.73
2018-03-04T18:58:43.053Z,81.23
2018-03-04T19:01:11.501Z,83.03
2018-03-04T19:03:39.941Z,74.23
2018-03-04T19:06:08.836Z,75.83
2018-03-04T19:08:37.399Z,89.20
2018-03-04T19:11:05.858Z,81.03
2018-03-04T19:13:34.301Z,85.37
2018-03-04T19:16:03.266Z,76.47
2018-03-04T19:18:32.185Z,84.40
2018-03-04T19:21:01.092Z,84.73
2018-03-04T19:23:29.613Z,83.80
2018-03-04T19:25:58.070Z,89.60
2018-03-04T19:28:26.522Z,97.13
2018-03-04T19:30:55.016Z,88.67
2018-03-04T19:33:23.475Z,88.73
2018-03-04T19:35:52.406Z,90.40
2018-03-04T19:38:20.845Z,86.23
2018-03-04T19:40:49.893Z,89.70
2018-03-04T19:43:18.337Z,101.93
2018-03-04T19:45:46.855Z,89.17
2018-03-04T19:48:15.333Z,91.47
2018-03-04T19:50:43.789Z,103.83
2018-03-04T19:53:12.236Z,88.57
2018-03-04T19:55:41.593Z,101.67
2018-03-04T19:58:10.504Z,96.57
2018-03-04T20:00:39.507Z,94.53
2018-03-04T20:03:08.661Z,100.77
2018-03-04T20:05:37.125Z,95.93
2018-03-04T20:08:05.645Z,102.97
2018-03-04T20:10:34.101Z,85.63
2018-03-04T20:13:02.554Z,90.73
2018-03-04T20:15:31.413Z,101.63
2018-03-04T20:17:59.851Z,91.93
2018-03-04T20:20:28.386Z,90.83
2018-03-04T20:22:56.939Z,91.83
2018-03-04T20:25:25.396Z,99.10
2018-03-04T20:27:54.810Z,88.10
2018-03-04T20:30:23.306Z,101.97
2018-03-04T20:32:51.783Z,97.10
2018-03-04T20:35:20.232Z,92.03
2018-03-04T20:37:48.677Z,86.53
2018-03-04T20:40:17.120Z,82.83
2018-03-04T20:42:45.570Z,92.70
2018-03-04T20:45:14.421Z,86.17
2018-03-04T20:47:42.869Z,95.47
2018-03-04T20:50:11.351Z,88.30
2018-03-04T20:52:39.788Z,93.10
2018-03-04T20:55:08.749Z,91.43
2018-03-04T20:57:37.209Z,97.03
2018-03-04T21:00:05.691Z,96.43
2018-03-04T21:02:35.067Z,95.50
2018-03-04T21:05:04.020Z,94.43
2018-03-04T21:07:33.313Z,95.20
2018-03-04T21:10:03.396Z,96.90
2018-03-04T21:12:32.232Z,91.60
2018-03-04T21:15:00.847Z,89.83
2018-03-04T21:17:29.375Z,102.93
2018-03-04T21:19:58.957Z,91.20
2018-03-04T21:22:27.592Z,84.17
2018-03-04T21:24:56.973Z,92.30
2018-03-04T21:27:27.259Z,85.50
2018-03-04T21:29:58.347Z,99.23
2018-03-04T21:32:26.807Z,97.57
2018-03-04T21:34:55.602Z,95.20
2018-03-04T21:37:24.695Z,93.30
2018-03-04T21:39:53.187Z,83.53
2018-03-04T21:42:21.759Z,85.70
2018-03-04T21:44:50.818Z,88.10
2018-03-04T21:47:20.726Z,90.50
2018-03-04T21:49:49.185Z,83.20
2018-03-04T21:52:18.542Z,86.93
2018-03-04T21:54:47.300Z,97.83
2018-03-04T21:57:15.753Z,97.53
2018-03-04T21:59:44.306Z,91.30
2018-03-04T22:02:13.659Z,99.53
2018-03-04T22:04:42.936Z,89.53
2018-03-04T22:07:11.434Z,94.40
2018-03-04T22:09:40.608Z,95.73
2018-03-04T22:12:09.730Z,94.03
2018-03-04T22:14:39.970Z,91.03
2018-03-04T22:17:09.284Z,90.43
2018-03-04T22:19:37.731Z,94.73
2018-03-04T22:22:06.620Z,91.53
2018-03-04T22:24:35.924Z,94.47
2018-03-04T22:27:05.343Z,83.93
2018-03-04T22:29:35.796Z,101.07
2018-03-04T22:32:05.337Z,84.20
2018-03-04T22:34:35.566Z,96.23
2018-03-04T22:37:04.803Z,91.73
2018-03-04T22:39:34.388Z,91.23
2018-03-04T22:42:03.391Z,89.93
2018-03-04T22:44:32.336Z,88.67
2018-03-04T22:47:01.580Z,100.00
2018-03-04T22:49:31.551Z,107.23
2018-03-04T22:52:00.482Z,105.33
2018-03-04T22:54:30.127Z,87.70
2018-03-04T22:56:58.939Z,97.10
2018-03-04T22:59:27.569Z,84.70
2018-03-04T23:01:56.463Z,83.57
2018-03-04T23:04:26.036Z,84.67
2018-03-04T23:06:55.576Z,88.23
2018-03-04T23:09:25.860Z,79.27
2018-03-04T23:11:54.669Z,90.13
2018-03-04T23:14:23.440Z,90.03
2018-03-04T23:16:53.295Z,98.27
2018-03-04T23:19:23.313Z,86.70
2018-03-04T23:21:53.585Z,93.80
2018-03-04T23:24:22.284Z,90.50
2018-03-04T23:26:52.368Z,92.40
2018-03-04T23:29:24.041Z,78.90
2018-03-04T23:31:52.615Z,90.10
2018-03-04T23:34:22.913Z,81.00
2018-03-04T23:36:51.988Z,82.60
2018-03-04T23:39:22.030Z,83.97
2018-03-04T23:41:52.298Z,83.87
2018-03-04T23:44:20.757Z,104.70
2018-03-04T23:46:50.559Z,95.40
2018-03-04T23:49:19.855Z,95.00
2018-03-04T23:51:48.680Z,84.07
2018-03-04T23:54:17.187Z,81.23
2018-03-04T23:56:46.716Z,86.70
2018-03-04T23:59:15.459Z,85.60
